Time;durP1;ratioP1;P1;durP2;ratioP2;P2;SDS_P1;SDS_P2;PMS_P1;PMS_P2;Temp;Humidity;BMP_temperature;BMP_pressure;BME280_temperature;BME280_humidity;BME280_pressure;Samples;Min_cycle;Max_cycle;Signal;HPM_P1;HPM_P2
2023/01/31 00:01:25;;;;;;;21.92;2.40;;;4.30;96.60;;;;;;5050654;28;20400;-92
2023/01/31 00:03:56;;;;;;;19.63;2.10;;;4.20;96.80;;;;;;5052754;28;20435;-90
2023/01/31 00:06:26;;;;;;;16.67;1.83;;;4.10;96.70;;;;;;5068763;28;20787;-91
2023/01/31 00:08:52;;;;;;;29.05;3.13;;;4.10;96.90;;;;;;5051358;28;20416;-90
2023/01/31 00:11:21;;;;;;;20.35;2.55;;;4.10;96.80;;;;;;5068872;28;20408;-91
2023/01/31 00:13:47;;;;;;;25.15;2.80;;;4.10;97.00;;;;;;5066997;28;20442;-91
2023/01/31 00:16:14;;;;;;;18.33;2.55;;;4.00;97.00;;;;;;5069498;28;20500;-91
2023/01/31 00:18:40;;;;;;;27.55;2.60;;;4.10;97.00;;;;;;5050798;28;20872;-89
2023/01/31 00:21:12;;;;;;;25.55;2.97;;;3.90;97.10;;;;;;5052366;28;20402;-91
2023/01/31 00:23:39;;;;;;;22.88;2.78;;;3.90;97.00;;;;;;5068362;28;20495;-89
2023/01/31 00:26:18;;;;;;;26.27;2.95;;;3.80;97.10;;;;;;5051440;28;20439;-89
2023/01/31 00:28:45;;;;;;;25.23;3.47;;;3.80;97.00;;;;;;5052415;28;20465;-91
2023/01/31 00:31:12;;;;;;;30.25;3.22;;;3.70;97.10;;;;;;5050343;28;20392;-92
2023/01/31 00:33:40;;;;;;;24.17;2.90;;;3.60;97.20;;;;;;5052064;28;20408;-92
2023/01/31 00:36:11;;;;;;;24.35;2.65;;;3.60;97.30;;;;;;5050475;28;20912;-92
2023/01/31 00:38:37;;;;;;;19.27;2.22;;;3.50;97.30;;;;;;5068434;28;20412;-92
2023/01/31 00:41:04;;;;;;;23.35;2.85;;;3.70;97.50;;;;;;5052135;28;20966;-90
2023/01/31 00:43:30;;;;;;;21.73;2.95;;;3.40;97.30;;;;;;5050382;28;20504;-91
2023/01/31 00:45:56;;;;;;;24.38;2.25;;;3.40;97.50;;;;;;5051685;28;21133;-90
2023/01/31 00:48:23;;;;;;;20.10;2.40;;;3.30;97.70;;;;;;5049927;28;20421;-92
2023/01/31 00:50:48;;;;;;;22.83;2.40;;;3.30;97.70;;;;;;5068832;28;20416;-91
2023/01/31 00:53:16;;;;;;;19.85;2.70;;;3.30;97.70;;;;;;5050130;28;20881;-91
2023/01/31 00:55:42;;;;;;;20.80;2.65;;;3.30;97.90;;;;;;5052276;28;20419;-91
2023/01/31 00:58:07;;;;;;;20.35;2.25;;;3.30;98.00;;;;;;5067221;28;21008;-90
2023/01/31 01:00:33;;;;;;;18.08;2.40;;;3.30;97.90;;;;;;5050645;28;20419;-90
2023/01/31 01:02:59;;;;;;;21.73;2.40;;;3.20;97.80;;;;;;5068309;28;20446;-92
2023/01/31 01:05:25;;;;;;;18.03;2.10;;;3.20;97.80;;;;;;5066172;28;20523;-91
2023/01/31 01:07:50;;;;;;;20.77;3.17;;;3.20;98.20;;;;;;5051233;28;20406;-91
2023/01/31 01:10:16;;;;;;;28.53;2.50;;;3.10;98.10;;;;;;5049464;28;20406;-90
2023/01/31 01:12:42;;;;;;;21.20;2.53;;;3.10;98.00;;;;;;5051381;28;20883;-89
2023/01/31 01:15:08;;;;;;;21.67;2.10;;;3.00;97.90;;;;;;5066580;28;20902;-91
2023/01/31 01:17:33;;;;;;;21.98;2.67;;;3.00;98.20;;;;;;5050825;28;20411;-94
2023/01/31 01:20:02;;;;;;;19.20;2.65;;;2.90;98.40;;;;;;5050889;28;20408;-91
2023/01/31 01:22:29;;;;;;;20.15;2.00;;;2.90;98.40;;;;;;5065937;28;20918;-91
2023/01/31 01:24:55;;;;;;;20.13;1.83;;;2.90;98.40;;;;;;5067837;28;20454;-91
2023/01/31 01:27:21;;;;;;;21.25;2.67;;;2.80;98.40;;;;;;5048952;28;20553;-91
2023/01/31 01:29:47;;;;;;;20.75;1.65;;;2.80;98.50;;;;;;5067748;28;21165;-91
2023/01/31 01:32:12;;;;;;;18.95;1.85;;;2.80;98.50;;;;;;5065799;28;20428;-91
2023/01/31 01:34:38;;;;;;;23.60;2.47;;;2.70;98.50;;;;;;5051126;28;20442;-91
2023/01/31 01:37:10;;;;;;;25.67;2.80;;;2.70;98.60;;;;;;5066468;28;20549;-91
2023/01/31 01:39:37;;;;;;;21.75;2.65;;;2.80;98.80;;;;;;5067036;28;20807;-91
2023/01/31 01:42:03;;;;;;;19.67;2.05;;;2.70;98.90;;;;;;5067412;28;20411;-90
2023/01/31 01:44:53;;;;;;;24.65;2.45;;;2.70;98.90;;;;;;5049001;28;20947;-90
2023/01/31 01:47:21;;;;;;;26.27;2.80;;;2.70;99.10;;;;;;5067582;28;20418;-90
2023/01/31 01:49:54;;;;;;;22.80;2.63;;;2.70;99.30;;;;;;5049393;28;20412;-91
2023/01/31 01:52:20;;;;;;;27.20;2.90;;;2.80;99.40;;;;;;5067393;28;20411;-91
2023/01/31 01:55:13;;;;;;;22.65;2.92;;;2.90;99.50;;;;;;5066955;28;20406;-91
2023/01/31 01:57:40;;;;;;;23.10;2.85;;;2.80;99.50;;;;;;5058791;28;20419;-90
2023/01/31 02:00:24;;;;;;;25.02;2.95;;;2.90;99.70;;;;;;5067877;28;20407;-91
2023/01/31 02:02:54;;;;;;;26.42;3.13;;;2.90;99.50;;;;;;5065931;28;20771;-90
2023/01/31 02:05:25;;;;;;;25.02;3.17;;;2.90;99.60;;;;;;5066892;28;20494;-91
2023/01/31 02:07:51;;;;;;;19.77;2.30;;;3.00;99.90;;;;;;5050524;28;20422;-90
2023/01/31 02:10:23;;;;;;;20.67;2.42;;;3.10;99.90;;;;;;5048836;28;20503;-90
2023/01/31 02:12:50;;;;;;;20.63;2.28;;;3.10;99.80;;;;;;5068067;28;20400;-91
2023/01/31 02:15:16;;;;;;;19.07;2.13;;;3.30;99.80;;;;;;5049085;28;20403;-90
2023/01/31 02:17:41;;;;;;;21.43;2.90;;;3.30;99.60;;;;;;5066909;28;20426;-91
2023/01/31 02:20:42;;;;;;;22.20;2.20;;;3.30;99.60;;;;;;5065857;28;20495;-89
2023/01/31 02:23:30;;;;;;;21.73;2.17;;;3.40;99.70;;;;;;5049470;28;20430;-90
2023/01/31 02:26:33;;;;;;;26.42;2.63;;;3.50;99.70;;;;;;5067047;28;20914;-90
2023/01/31 02:28:59;;;;;;;24.85;2.95;;;3.50;99.60;;;;;;5049364;28;20418;-90
2023/01/31 02:31:35;;;;;;;22.63;2.50;;;3.60;99.60;;;;;;5049820;28;20396;-90
2023/01/31 02:34:22;;;;;;;20.38;2.10;;;3.60;99.60;;;;;;5049739;28;20411;-90
2023/01/31 02:37:01;;;;;;;20.02;2.30;;;3.60;99.60;;;;;;5052345;28;20423;-90
2023/01/31 02:39:50;;;;;;;18.40;2.05;;;3.60;99.40;;;;;;5054043;28;20461;-91
2023/01/31 02:42:23;;;;;;;21.00;2.40;;;3.70;99.40;;;;;;5070994;28;20466;-90
2023/01/31 02:44:58;;;;;;;21.00;2.60;;;3.60;99.50;;;;;;5052400;28;20539;-90
2023/01/31 02:47:30;;;;;;;21.02;2.13;;;3.60;99.10;;;;;;5071149;28;20447;-91
2023/01/31 02:50:03;;;;;;;20.30;2.17;;;3.60;99.00;;;;;;5052637;28;20412;-90
2023/01/31 02:52:40;;;;;;;21.00;2.05;;;3.60;99.10;;;;;;5070922;28;20466;-90
2023/01/31 02:58:06;;;;;;;19.95;2.33;;;3.60;99.20;;;;;;5068866;28;20420;-89
2023/01/31 03:00:35;;;;;;;18.37;2.10;;;3.80;99.30;;;;;;5053751;28;20464;-91
2023/01/31 03:03:06;;;;;;;19.13;1.98;;;3.70;99.40;;;;;;5051982;28;20415;-91
2023/01/31 03:05:31;;;;;;;19.42;2.25;;;3.90;99.50;;;;;;5053771;28;20481;-91
2023/01/31 03:08:03;;;;;;;19.70;1.73;;;3.70;99.40;;;;;;5052508;28;20435;-90
2023/01/31 03:10:58;;;;;;;20.88;2.45;;;3.90;99.40;;;;;;5070608;28;20422;-91
2023/01/31 03:13:33;;;;;;;16.65;2.08;;;3.80;99.50;;;;;;5070652;28;20422;-90
2023/01/31 03:19:18;;;;;;;18.77;1.90;;;4.00;99.50;;;;;;5069389;28;20499;-92
2023/01/31 03:22:02;;;;;;;17.88;1.85;;;4.00;99.40;;;;;;5070155;28;20906;-91
2023/01/31 03:24:29;;;;;;;20.33;2.22;;;4.20;99.40;;;;;;5051280;28;20445;-90
2023/01/31 03:26:56;;;;;;;23.45;2.30;;;4.20;99.40;;;;;;5053296;28;20470;-89
2023/01/31 03:29:25;;;;;;;15.60;1.88;;;4.30;99.30;;;;;;5068602;28;20415;-91
2023/01/31 03:31:58;;;;;;;20.52;2.30;;;4.30;99.20;;;;;;5069549;28;20431;-93
2023/01/31 03:34:25;;;;;;;18.58;1.98;;;4.50;99.20;;;;;;5053137;28;20419;-88
2023/01/31 03:37:09;;;;;;;18.65;2.30;;;4.40;99.10;;;;;;5067967;28;20499;-91
2023/01/31 03:39:48;;;;;;;22.17;2.28;;;4.50;99.10;;;;;;5070100;28;20435;-89
2023/01/31 03:42:22;;;;;;;16.42;2.00;;;4.50;99.10;;;;;;5067665;28;20922;-89
2023/01/31 03:45:03;;;;;;;20.35;1.98;;;4.60;99.00;;;;;;5052074;28;20932;-90
2023/01/31 03:47:34;;;;;;;21.10;2.78;;;4.60;99.00;;;;;;5052845;28;20424;-91
2023/01/31 03:50:06;;;;;;;18.45;2.85;;;4.70;99.00;;;;;;5051196;28;20412;-89
2023/01/31 03:52:36;;;;;;;23.48;2.78;;;4.70;99.00;;;;;;5069690;28;20414;-91
2023/01/31 03:55:18;;;;;;;22.48;2.95;;;4.80;99.10;;;;;;5051006;28;20430;-90
2023/01/31 03:57:48;;;;;;;24.20;3.08;;;4.80;99.10;;;;;;5052304;28;20415;-90
2023/01/31 04:00:17;;;;;;;20.57;2.83;;;4.80;99.20;;;;;;5052757;28;20419;-92
2023/01/31 04:02:44;;;;;;;22.88;3.30;;;4.90;99.30;;;;;;5051197;28;20549;-91
2023/01/31 04:05:17;;;;;;;25.77;3.20;;;4.90;99.30;;;;;;5052960;28;20473;-91
2023/01/31 04:07:42;;;;;;;21.00;3.30;;;5.00;99.30;;;;;;5050584;28;20442;-91
2023/01/31 04:10:17;;;;;;;23.13;3.73;;;5.00;99.30;;;;;;5069325;28;20404;-92
2023/01/31 04:12:43;;;;;;;21.50;3.13;;;5.00;99.30;;;;;;5050689;28;20451;-91
2023/01/31 04:15:10;;;;;;;21.88;3.20;;;5.10;99.40;;;;;;5051917;28;20410;-91
2023/01/31 04:17:36;;;;;;;27.20;3.30;;;5.10;99.30;;;;;;5068907;28;20408;-91
2023/01/31 04:20:02;;;;;;;21.73;3.10;;;5.10;99.30;;;;;;5050866;28;20417;-93
2023/01/31 04:22:31;;;;;;;25.27;3.95;;;5.20;99.30;;;;;;5070373;28;20422;-91
2023/01/31 04:24:57;;;;;;;25.83;3.47;;;5.20;99.30;;;;;;5050012;28;20783;-92
2023/01/31 04:27:23;;;;;;;25.03;3.97;;;5.50;99.30;;;;;;5052853;28;20407;-91
2023/01/31 04:29:48;;;;;;;25.90;3.37;;;5.20;99.30;;;;;;5066688;28;20873;-90
2023/01/31 04:32:14;;;;;;;26.35;3.42;;;5.40;99.20;;;;;;5068435;28;20452;-91
2023/01/31 04:34:39;;;;;;;24.98;3.65;;;5.20;99.20;;;;;;5051682;28;20430;-90
2023/01/31 04:37:05;;;;;;;24.73;3.37;;;5.30;99.30;;;;;;5050713;28;20573;-91
2023/01/31 04:39:30;;;;;;;27.10;3.87;;;5.30;99.20;;;;;;5068489;28;20419;-91
2023/01/31 04:41:56;;;;;;;25.88;4.03;;;5.30;99.20;;;;;;5066588;28;20416;-91
2023/01/31 04:44:22;;;;;;;26.87;3.87;;;5.30;99.30;;;;;;5052135;28;20427;-90
2023/01/31 04:46:47;;;;;;;26.67;3.97;;;5.30;99.30;;;;;;5066982;28;20581;-92
2023/01/31 04:49:14;;;;;;;27.85;4.35;;;5.40;99.30;;;;;;5068826;28;20461;-90
2023/01/31 04:51:40;;;;;;;27.73;4.07;;;5.40;99.30;;;;;;5050193;28;20422;-90
2023/01/31 04:54:06;;;;;;;27.27;4.00;;;5.40;99.30;;;;;;5067914;28;20491;-91
2023/01/31 04:56:32;;;;;;;26.60;4.22;;;5.40;99.30;;;;;;5051431;28;20499;-91
2023/01/31 04:58:57;;;;;;;24.83;3.85;;;5.40;99.30;;;;;;5050118;28;20424;-90
2023/01/31 05:01:24;;;;;;;29.17;4.17;;;5.40;99.60;;;;;;5067797;28;20959;-91
2023/01/31 05:03:49;;;;;;;31.10;4.70;;;5.30;99.30;;;;;;5049456;28;20411;-92
2023/01/31 05:06:15;;;;;;;29.85;4.30;;;5.40;99.30;;;;;;5051531;28;20431;-92
2023/01/31 05:08:41;;;;;;;30.85;4.55;;;5.30;99.30;;;;;;5049839;28;20408;-91
2023/01/31 05:11:07;;;;;;;25.85;4.72;;;5.30;99.30;;;;;;5052202;28;20498;-92
2023/01/31 05:13:37;;;;;;;26.98;4.55;;;5.30;99.30;;;;;;5049815;28;20949;-91
2023/01/31 05:16:07;;;;;;;31.07;5.20;;;5.30;99.30;;;;;;5067295;28;21142;-92
2023/01/31 05:18:34;;;;;;;28.60;4.53;;;5.30;99.40;;;;;;5050757;28;20415;-90
2023/01/31 05:21:01;;;;;;;27.63;4.32;;;5.30;99.40;;;;;;5065774;28;20776;-91
2023/01/31 05:23:26;;;;;;;28.13;4.15;;;5.30;99.40;;;;;;5051068;28;20403;-91
2023/01/31 05:25:52;;;;;;;31.47;4.57;;;5.40;99.40;;;;;;5065459;28;20427;-90
2023/01/31 05:28:17;;;;;;;25.97;4.27;;;5.30;99.30;;;;;;5051418;28;20407;-91
2023/01/31 05:30:45;;;;;;;30.98;4.40;;;5.30;99.30;;;;;;5049768;28;20958;-91
2023/01/31 05:33:10;;;;;;;27.73;4.40;;;5.30;99.30;;;;;;5067282;28;20422;-90
2023/01/31 05:35:38;;;;;;;31.03;4.83;;;5.40;99.30;;;;;;5067322;28;20415;-91
2023/01/31 05:38:04;;;;;;;23.08;3.90;;;5.50;99.20;;;;;;5049446;28;20526;-91
2023/01/31 05:40:30;;;;;;;29.63;4.47;;;5.70;99.20;;;;;;5051001;28;20431;-91
2023/01/31 05:42:59;;;;;;;29.10;5.15;;;5.40;99.00;;;;;;5064560;28;20443;-93
2023/01/31 05:45:25;;;;;;;27.90;4.80;;;5.60;99.00;;;;;;5050577;28;20522;-92
2023/01/31 05:47:52;;;;;;;24.52;3.83;;;5.50;99.00;;;;;;5065905;28;20778;-91
2023/01/31 05:50:18;;;;;;;29.17;5.22;;;5.50;98.90;;;;;;5050066;28;20414;-93
2023/01/31 05:52:58;;;;;;;24.25;4.70;;;5.50;98.90;;;;;;5066708;28;20408;-91
2023/01/31 05:55:25;;;;;;;24.10;4.55;;;5.60;98.80;;;;;;5065738;28;20412;-93
2023/01/31 05:57:52;;;;;;;27.38;4.80;;;5.60;98.80;;;;;;5053220;28;20926;-91
2023/01/31 06:00:18;;;;;;;28.15;5.03;;;5.70;98.70;;;;;;5048864;28;20469;-92
2023/01/31 06:02:44;;;;;;;25.45;4.10;;;5.60;98.70;;;;;;5071286;28;20493;-92
2023/01/31 06:05:10;;;;;;;28.67;4.53;;;5.60;98.60;;;;;;5068338;28;20798;-91
2023/01/31 06:07:37;;;;;;;29.70;4.80;;;5.70;98.60;;;;;;5070301;28;20463;-93
2023/01/31 06:10:04;;;;;;;27.30;5.15;;;5.70;98.50;;;;;;5087211;28;20508;-93
2023/01/31 06:12:30;;;;;;;26.45;5.03;;;5.70;98.50;;;;;;5086062;28;20394;-93
2023/01/31 06:14:56;;;;;;;25.45;4.45;;;5.70;98.50;;;;;;5087530;28;20441;-93
2023/01/31 06:17:24;;;;;;;25.52;4.65;;;5.70;98.40;;;;;;5068615;28;20429;-93
2023/01/31 06:19:50;;;;;;;24.73;4.13;;;5.80;98.40;;;;;;5070083;28;20404;-91
2023/01/31 06:22:17;;;;;;;23.55;4.50;;;5.90;98.50;;;;;;5085947;28;20402;-93
2023/01/31 06:24:43;;;;;;;25.17;4.53;;;5.90;98.40;;;;;;5087283;28;20788;-92
2023/01/31 06:27:08;;;;;;;29.10;4.37;;;5.90;98.40;;;;;;5069534;28;20432;-92
2023/01/31 06:29:34;;;;;;;25.47;4.23;;;5.90;98.30;;;;;;5085900;28;20417;-95
2023/01/31 06:32:00;;;;;;;28.33;4.75;;;6.10;98.40;;;;;;5070421;28;20432;-93
2023/01/31 06:34:25;;;;;;;24.15;4.03;;;6.00;98.20;;;;;;5069017;28;20480;-92
2023/01/31 06:36:51;;;;;;;26.67;4.93;;;6.00;98.10;;;;;;5070379;28;20750;-93
2023/01/31 06:39:17;;;;;;;26.60;4.57;;;6.10;98.10;;;;;;5068884;28;20406;-91
2023/01/31 06:41:42;;;;;;;27.83;4.20;;;6.10;98.20;;;;;;5070338;28;20402;-93
2023/01/31 06:44:08;;;;;;;23.25;3.72;;;6.10;98.50;;;;;;5068690;28;20761;-92
2023/01/31 06:46:34;;;;;;;26.63;3.60;;;6.40;98.30;;;;;;5069992;28;20425;-93
2023/01/31 06:49:00;;;;;;;23.80;3.90;;;6.20;98.30;;;;;;5070250;28;20417;-91
2023/01/31 06:51:25;;;;;;;25.07;3.73;;;6.10;98.30;;;;;;5085634;28;20445;-92
2023/01/31 06:53:51;;;;;;;23.47;3.20;;;6.00;98.30;;;;;;5070714;28;20756;-93
2023/01/31 06:56:18;;;;;;;19.92;3.53;;;6.50;98.30;;;;;;5068661;28;20402;-92
2023/01/31 06:58:43;;;;;;;20.43;3.00;;;6.20;98.20;;;;;;5070290;28;20886;-94
2023/01/31 07:01:12;;;;;;;20.97;3.63;;;6.10;98.10;;;;;;5085309;28;20433;-91
2023/01/31 07:03:38;;;;;;;18.35;3.17;;;6.20;98.10;;;;;;5086805;28;20406;-93
2023/01/31 07:06:05;;;;;;;17.60;2.85;;;6.50;98.10;;;;;;5069136;28;20426;-93
2023/01/31 07:08:31;;;;;;;20.45;2.83;;;6.20;97.90;;;;;;5069549;28;20513;-92
2023/01/31 07:11:00;;;;;;;17.92;3.10;;;6.40;97.90;;;;;;5060691;28;20427;-92
2023/01/31 07:13:27;;;;;;;21.10;2.90;;;6.20;97.80;;;;;;5048795;28;20813;-92
2023/01/31 07:15:53;;;;;;;20.40;2.93;;;6.20;97.80;;;;;;5050673;28;20838;-93
2023/01/31 07:18:19;;;;;;;18.73;2.50;;;6.20;97.80;;;;;;5047947;28;20993;-91
2023/01/31 07:20:44;;;;;;;17.47;2.53;;;6.30;97.80;;;;;;5065064;28;20407;-91
2023/01/31 07:23:10;;;;;;;15.40;2.50;;;6.20;97.90;;;;;;5086658;28;20446;-94
2023/01/31 07:25:36;;;;;;;18.25;2.63;;;6.30;97.80;;;;;;5067823;28;20486;-93
2023/01/31 07:28:02;;;;;;;22.75;2.85;;;6.30;97.90;;;;;;5072876;28;20451;-92
2023/01/31 07:30:28;;;;;;;19.73;2.10;;;6.30;98.00;;;;;;5071503;28;20458;-94
2023/01/31 07:32:54;;;;;;;19.48;2.63;;;6.30;97.90;;;;;;5063030;28;20404;-92
2023/01/31 07:35:20;;;;;;;15.63;2.17;;;6.30;97.90;;;;;;5050743;28;20421;-92
2023/01/31 07:37:46;;;;;;;15.50;2.33;;;6.40;98.00;;;;;;5053167;28;20403;-93
2023/01/31 07:40:14;;;;;;;16.60;2.75;;;6.50;98.00;;;;;;5051601;28;20404;-93
2023/01/31 07:42:40;;;;;;;20.45;2.00;;;6.30;97.90;;;;;;5069106;28;20415;-93
2023/01/31 07:45:09;;;;;;;15.02;1.77;;;6.30;97.90;;;;;;5085564;28;20466;-94
2023/01/31 07:47:35;;;;;;;15.02;2.35;;;6.30;97.90;;;;;;5085724;28;20408;-93
2023/01/31 07:50:01;;;;;;;15.95;2.25;;;6.20;97.80;;;;;;5086617;28;20415;-93
2023/01/31 07:52:26;;;;;;;18.52;1.80;;;6.60;98.20;;;;;;5084798;28;20919;-93
2023/01/31 07:54:52;;;;;;;13.30;1.80;;;6.80;97.90;;;;;;5052825;28;20423;-94
2023/01/31 07:57:18;;;;;;;16.37;2.17;;;6.40;97.70;;;;;;5084428;28;20467;-92
2023/01/31 07:59:44;;;;;;;14.63;1.90;;;6.40;97.70;;;;;;5086362;28;20404;-92
2023/01/31 08:04:58;;;;;;;15.35;2.22;;;6.50;97.80;;;;;;5068092;28;20517;-93
2023/01/31 08:07:25;;;;;;;15.93;2.30;;;6.50;97.80;;;;;;5084724;28;20439;-91
2023/01/31 08:09:51;;;;;;;17.08;2.13;;;6.50;97.80;;;;;;5050598;28;20989;-92
2023/01/31 08:12:17;;;;;;;18.65;2.60;;;6.50;97.90;;;;;;5052804;28;20400;-93
2023/01/31 08:14:43;;;;;;;18.00;2.60;;;6.50;98.10;;;;;;5067775;28;20763;-93
2023/01/31 08:17:09;;;;;;;17.55;2.70;;;6.50;98.10;;;;;;5052482;28;20517;-91
2023/01/31 08:19:35;;;;;;;22.70;2.55;;;6.70;98.20;;;;;;5067625;28;20821;-91
2023/01/31 08:22:03;;;;;;;18.88;3.35;;;6.50;98.20;;;;;;5068754;28;20469;-92
2023/01/31 08:24:29;;;;;;;17.95;2.53;;;6.50;98.20;;;;;;5052376;28;20440;-92
2023/01/31 08:26:55;;;;;;;17.80;2.83;;;6.60;98.20;;;;;;5067594;28;20415;-93
2023/01/31 08:29:21;;;;;;;16.58;2.30;;;6.70;98.30;;;;;;5052487;28;20494;-93
2023/01/31 08:31:47;;;;;;;16.35;2.83;;;6.60;98.30;;;;;;5066949;28;20460;-92
2023/01/31 08:34:13;;;;;;;19.67;2.67;;;6.60;98.30;;;;;;5068997;28;20411;-93
2023/01/31 08:36:38;;;;;;;20.77;2.63;;;6.70;98.30;;;;;;5050472;28;20452;-92
2023/01/31 08:39:04;;;;;;;20.40;2.63;;;6.70;98.20;;;;;;5068334;28;20487;-91
2023/01/31 08:41:32;;;;;;;21.90;2.77;;;6.80;98.20;;;;;;5051469;28;20821;-91
2023/01/31 08:43:58;;;;;;;16.35;2.67;;;6.70;98.10;;;;;;5067322;28;20423;-90
2023/01/31 08:46:26;;;;;;;18.10;2.87;;;6.80;98.10;;;;;;5052010;28;20424;-92
2023/01/31 08:48:52;;;;;;;18.58;2.47;;;6.80;98.10;;;;;;5050094;28;20412;-94
2023/01/31 08:51:18;;;;;;;23.13;3.03;;;6.80;98.10;;;;;;5051647;28;21209;-90
2023/01/31 08:53:44;;;;;;;20.73;2.90;;;6.80;98.00;;;;;;5066820;28;20419;-92
2023/01/31 08:56:11;;;;;;;17.30;2.17;;;6.80;98.10;;;;;;5052451;28;20408;-92
2023/01/31 08:58:40;;;;;;;21.77;3.10;;;6.80;98.10;;;;;;5050754;28;20962;-92
2023/01/31 09:01:17;;;;;;;21.15;2.70;;;6.80;98.20;;;;;;5067638;28;20515;-93
2023/01/31 09:03:44;;;;;;;19.38;2.83;;;6.80;98.30;;;;;;5052006;28;20434;-93
2023/01/31 09:06:15;;;;;;;17.83;2.92;;;6.90;98.50;;;;;;5049530;28;20835;-93
2023/01/31 09:08:41;;;;;;;24.42;3.42;;;7.30;98.50;;;;;;5051293;28;20414;-93
2023/01/31 09:11:07;;;;;;;23.40;2.97;;;6.90;98.60;;;;;;5049482;28;20495;-91
2023/01/31 09:13:33;;;;;;;23.90;3.13;;;7.00;98.80;;;;;;5051159;28;20407;-91
2023/01/31 09:16:01;;;;;;;24.33;2.72;;;7.00;98.90;;;;;;5067075;28;20438;-91
2023/01/31 09:18:27;;;;;;;23.92;3.22;;;7.10;98.90;;;;;;5050514;28;20411;-93
2023/01/31 09:20:53;;;;;;;20.63;3.03;;;7.30;98.90;;;;;;5052280;28;20439;-92
2023/01/31 09:23:19;;;;;;;20.27;2.70;;;7.10;98.70;;;;;;5066275;28;20403;-92
2023/01/31 09:25:54;;;;;;;20.10;3.47;;;7.10;98.60;;;;;;5068317;28;20431;-92
2023/01/31 09:28:21;;;;;;;23.00;3.33;;;7.20;98.60;;;;;;5065444;28;20400;-94
2023/01/31 09:30:48;;;;;;;20.08;3.00;;;7.20;98.70;;;;;;5050894;28;20403;-93
2023/01/31 09:33:14;;;;;;;29.00;3.90;;;7.20;98.50;;;;;;5050044;28;20403;-93
2023/01/31 09:35:40;;;;;;;19.52;3.05;;;7.20;98.50;;;;;;5050593;28;20418;-92
2023/01/31 09:38:05;;;;;;;24.63;3.30;;;7.40;98.70;;;;;;5067643;28;20407;-92
2023/01/31 09:40:34;;;;;;;23.55;3.15;;;7.10;98.60;;;;;;5065821;28;20545;-91
2023/01/31 09:43:02;;;;;;;26.00;3.35;;;7.30;98.70;;;;;;5050152;28;20790;-93
2023/01/31 09:45:35;;;;;;;23.98;3.38;;;7.30;98.80;;;;;;5049148;28;20783;-93
2023/01/31 09:48:03;;;;;;;28.08;3.78;;;7.10;98.70;;;;;;5051520;28;20427;-92
2023/01/31 09:50:28;;;;;;;22.67;3.50;;;7.10;98.80;;;;;;5049489;28;20469;-93
2023/01/31 09:52:54;;;;;;;23.47;3.40;;;7.10;98.90;;;;;;5067070;28;20416;-92
2023/01/31 09:55:46;;;;;;;24.23;3.40;;;7.00;99.00;;;;;;5057091;28;20498;-92
2023/01/31 09:58:31;;;;;;;25.57;3.83;;;7.10;99.20;;;;;;5061909;28;21131;-92
2023/01/31 10:01:07;;;;;;;25.35;4.03;;;7.10;99.30;;;;;;5063468;28;20452;-91
2023/01/31 10:03:40;;;;;;;31.48;4.40;;;7.20;99.50;;;;;;5099724;28;20412;-92
2023/01/31 10:06:16;;;;;;;26.17;3.88;;;7.10;99.60;;;;;;5083116;28;20462;-89
2023/01/31 10:08:55;;;;;;;26.48;3.97;;;7.00;99.70;;;;;;5084348;28;20416;-91
2023/01/31 10:11:50;;;;;;;30.35;4.07;;;7.00;99.90;;;;;;5099260;28;20495;-92
2023/01/31 10:14:31;;;;;;;27.83;4.38;;;7.00;99.90;;;;;;5083860;28;21023;-93
2023/01/31 10:17:10;;;;;;;29.77;4.35;;;7.10;99.90;;;;;;5082988;28;20419;-91
2023/01/31 10:19:49;;;;;;;31.15;4.20;;;7.10;99.90;;;;;;5060812;28;20498;-92
2023/01/31 10:22:27;;;;;;;28.58;4.60;;;7.10;99.90;;;;;;5084278;28;20411;-93
2023/01/31 10:24:59;;;;;;;25.02;3.72;;;7.10;99.90;;;;;;5081700;28;20416;-92
2023/01/31 10:27:50;;;;;;;23.88;4.22;;;7.20;99.90;;;;;;5100907;28;20408;-93
2023/01/31 10:30:23;;;;;;;26.98;3.65;;;7.10;99.90;;;;;;5050567;28;20426;-91
2023/01/31 10:32:54;;;;;;;26.23;4.43;;;7.10;99.90;;;;;;5098709;28;20416;-93
2023/01/31 10:35:27;;;;;;;27.63;4.03;;;7.20;99.90;;;;;;5083746;28;20399;-93
2023/01/31 10:37:58;;;;;;;23.70;3.67;;;7.20;99.90;;;;;;5082280;28;20412;-93
2023/01/31 10:40:44;;;;;;;26.55;3.63;;;7.20;99.90;;;;;;5100531;28;20411;-94
2023/01/31 10:43:26;;;;;;;27.88;4.72;;;7.30;99.90;;;;;;5049817;28;20442;-93
2023/01/31 10:45:52;;;;;;;30.10;3.80;;;7.20;99.90;;;;;;5048098;28;20478;-93
2023/01/31 10:48:27;;;;;;;26.30;3.75;;;7.20;99.90;;;;;;5067471;28;20436;-94
2023/01/31 10:51:29;;;;;;;25.20;4.07;;;7.20;99.90;;;;;;5048849;28;20423;-92
2023/01/31 10:54:04;;;;;;;29.90;4.03;;;7.20;99.90;;;;;;5048246;28;20427;-94
2023/01/31 10:56:33;;;;;;;26.83;3.50;;;7.20;99.90;;;;;;5087622;28;20404;-94
2023/01/31 10:59:03;;;;;;;27.43;4.20;;;7.30;99.90;;;;;;5086339;28;20465;-94
2023/01/31 11:01:29;;;;;;;31.35;4.03;;;7.30;99.90;;;;;;5087861;28;20501;-94
2023/01/31 11:03:56;;;;;;;27.92;4.10;;;7.30;99.90;;;;;;5085842;28;20913;-93
2023/01/31 11:06:23;;;;;;;30.33;3.83;;;7.40;99.90;;;;;;5086578;28;20783;-93
2023/01/31 11:09:00;;;;;;;24.70;3.50;;;7.30;99.90;;;;;;5069579;28;20415;-93
2023/01/31 11:11:29;;;;;;;25.93;3.83;;;7.30;99.90;;;;;;5085917;28;20815;-94
2023/01/31 11:14:06;;;;;;;23.73;3.38;;;7.40;99.90;;;;;;5070774;28;20432;-94
2023/01/31 11:16:41;;;;;;;27.45;3.85;;;7.40;99.90;;;;;;5085619;28;20786;-92
2023/01/31 11:19:21;;;;;;;28.10;3.95;;;7.60;99.90;;;;;;5084208;28;20907;-92
2023/01/31 11:21:50;;;;;;;28.70;3.47;;;7.50;99.90;;;;;;5103679;28;20422;-93
2023/01/31 11:24:20;;;;;;;22.30;3.92;;;7.50;99.90;;;;;;5052147;28;20761;-93
2023/01/31 11:26:58;;;;;;;30.05;3.13;;;7.70;99.90;;;;;;5053352;28;20427;-94
2023/01/31 11:29:30;;;;;;;24.37;3.67;;;7.50;99.90;;;;;;5051945;28;20412;-95
2023/01/31 11:31:58;;;;;;;29.13;3.90;;;7.40;99.90;;;;;;5070348;28;20502;-92
2023/01/31 11:34:28;;;;;;;25.80;3.47;;;7.50;99.90;;;;;;5051787;28;20408;-92
2023/01/31 11:37:04;;;;;;;24.98;3.92;;;7.60;99.90;;;;;;5053170;28;20415;-90
2023/01/31 11:39:37;;;;;;;23.48;3.42;;;7.70;99.90;;;;;;5053422;28;20416;-94
2023/01/31 11:42:11;;;;;;;23.03;3.17;;;7.80;99.80;;;;;;5068346;28;20505;-94
2023/01/31 11:44:52;;;;;;;26.58;4.07;;;7.80;99.60;;;;;;5070442;28;20419;-94
2023/01/31 11:47:21;;;;;;;21.77;3.28;;;8.20;99.50;;;;;;5052094;28;20474;-95
2023/01/31 11:49:49;;;;;;;23.10;3.42;;;7.70;99.20;;;;;;5053063;28;20833;-92
2023/01/31 11:52:20;;;;;;;23.20;3.45;;;8.30;99.20;;;;;;5053281;28;20410;-95
2023/01/31 11:54:51;;;;;;;20.05;3.22;;;8.20;98.90;;;;;;5068799;28;20811;-95
2023/01/31 11:57:23;;;;;;;21.17;2.95;;;8.20;98.50;;;;;;5053619;28;20490;-94
2023/01/31 11:59:52;;;;;;;23.02;2.85;;;8.10;98.40;;;;;;5054142;28;20411;-94
2023/01/31 12:02:32;;;;;;;23.65;3.08;;;8.30;98.30;;;;;;5053631;28;20767;-92
2023/01/31 12:04:59;;;;;;;19.42;2.67;;;8.40;98.30;;;;;;5051599;28;20431;-93
2023/01/31 12:07:40;;;;;;;18.57;2.80;;;8.20;98.00;;;;;;5068047;28;20443;-93
2023/01/31 12:10:44;;;;;;;21.08;3.15;;;8.40;98.00;;;;;;5052623;28;20411;-92
2023/01/31 12:13:15;;;;;;;20.77;3.55;;;8.40;97.90;;;;;;5067795;28;20416;-93
2023/01/31 12:15:48;;;;;;;19.90;3.25;;;8.50;97.70;;;;;;5052603;28;21073;-93
2023/01/31 12:18:22;;;;;;;19.52;2.80;;;8.60;97.70;;;;;;5052591;28;20412;-92
2023/01/31 12:21:02;;;;;;;17.27;2.35;;;8.60;97.80;;;;;;5050689;28;20408;-92
2023/01/31 12:23:38;;;;;;;20.90;3.28;;;8.60;97.60;;;;;;5069428;28;20407;-93
2023/01/31 12:26:16;;;;;;;17.33;2.50;;;8.50;97.60;;;;;;5050469;28;20569;-93
2023/01/31 12:28:58;;;;;;;16.08;2.45;;;8.90;97.50;;;;;;5102729;28;20435;-92
2023/01/31 12:31:26;;;;;;;16.38;2.67;;;9.00;97.10;;;;;;5052048;28;20545;-93
2023/01/31 12:34:17;;;;;;;16.23;2.65;;;9.10;97.10;;;;;;5050629;28;20420;-92
2023/01/31 12:37:14;;;;;;;16.40;2.25;;;9.20;96.70;;;;;;5052064;28;20411;-92
2023/01/31 12:39:40;;;;;;;19.02;3.03;;;9.30;96.50;;;;;;5101602;28;20442;-92
2023/01/31 12:42:15;;;;;;;14.93;2.20;;;9.40;96.50;;;;;;5068212;28;20439;-92
2023/01/31 12:44:48;;;;;;;15.65;2.60;;;9.40;96.50;;;;;;5052405;28;20870;-92
2023/01/31 12:47:32;;;;;;;14.77;2.17;;;9.30;96.20;;;;;;5066763;28;20446;-92
2023/01/31 12:50:12;;;;;;;16.25;2.10;;;9.30;96.20;;;;;;5052095;28;20443;-92
2023/01/31 12:53:03;;;;;;;14.82;2.63;;;9.30;96.20;;;;;;5050509;28;20411;-93
2023/01/31 12:55:35;;;;;;;16.02;3.00;;;9.20;96.10;;;;;;5067134;28;20407;-93
2023/01/31 12:58:19;;;;;;;13.63;2.13;;;9.20;96.10;;;;;;5052076;28;20491;-94
2023/01/31 13:01:02;;;;;;;14.45;2.22;;;9.10;96.30;;;;;;5049943;28;20415;-91
2023/01/31 13:03:56;;;;;;;15.00;2.42;;;9.10;96.20;;;;;;5051343;28;20433;-92
2023/01/31 13:06:35;;;;;;;17.65;2.53;;;9.10;96.10;;;;;;5051674;28;20436;-92
2023/01/31 13:09:10;;;;;;;15.87;2.23;;;9.00;96.00;;;;;;5052982;28;20422;-94
2023/01/31 13:11:40;;;;;;;16.27;2.20;;;9.00;96.00;;;;;;5084435;28;21067;-93
2023/01/31 13:14:14;;;;;;;18.48;2.20;;;9.00;96.10;;;;;;5050476;28;20422;-92